createdAt,value
2023-04-18T00:01:10.192Z,74.27
2023-04-18T00:03:40.950Z,74.09
2023-04-18T00:06:08.079Z,74.20
2023-04-18T00:08:34.952Z,74.18
2023-04-18T00:11:01.906Z,74.29
2023-04-18T00:13:28.750Z,74.35
2023-04-18T00:15:55.666Z,74.29
2023-04-18T00:18:26.169Z,74.35
2023-04-18T00:20:53.900Z,74.28
2023-04-18T00:23:21.566Z,74.28
2023-04-18T00:25:49.001Z,74.18
2023-04-18T00:28:15.916Z,74.20
2023-04-18T00:30:42.879Z,74.49
2023-04-18T00:33:09.836Z,74.46
2023-04-18T00:35:38.166Z,74.31
2023-04-18T00:38:05.068Z,74.29
2023-04-18T00:40:31.969Z,74.47
2023-04-18T00:42:58.980Z,74.44
2023-04-18T00:45:25.910Z,74.56
2023-04-18T00:47:52.945Z,74.57
2023-04-18T00:50:20.728Z,74.57
2023-04-18T00:52:48.224Z,74.75
2023-04-18T00:55:16.256Z,74.79
2023-04-18T00:57:43.228Z,74.55
2023-04-18T01:00:10.641Z,74.73
2023-04-18T01:02:39.858Z,74.75
2023-04-18T01:05:08.118Z,74.63
2023-04-18T01:07:37.449Z,74.51
2023-04-18T01:10:04.968Z,74.28
2023-04-18T01:12:31.854Z,74.27
2023-04-18T01:15:00.739Z,74.27
2023-04-18T01:17:29.607Z,74.34
2023-04-18T01:19:57.021Z,74.22
2023-04-18T01:22:24.363Z,74.04
2023-04-18T01:24:51.264Z,73.93
2023-04-18T01:27:18.141Z,73.90
2023-04-18T01:29:45.214Z,73.93
2023-04-18T01:32:12.178Z,74.02
2023-04-18T01:34:39.015Z,74.01
2023-04-18T01:37:06.307Z,74.04
2023-04-18T01:39:33.238Z,74.06
2023-04-18T01:42:02.084Z,74.23
2023-04-18T01:44:29.061Z,74.35
2023-04-18T01:46:55.995Z,74.68
2023-04-18T01:49:22.890Z,74.44
2023-04-18T01:51:50.363Z,74.49
2023-04-18T01:54:17.233Z,74.62
2023-04-18T01:56:44.160Z,74.66
2023-04-18T01:59:11.103Z,74.83
2023-04-18T02:01:38.721Z,74.80
2023-04-18T02:04:05.604Z,74.86
2023-04-18T02:06:32.529Z,74.92
2023-04-18T02:08:59.966Z,75.11
2023-04-18T02:11:26.821Z,75.19
2023-04-18T02:13:53.996Z,75.07
2023-04-18T02:16:21.032Z,75.03
2023-04-18T02:18:47.863Z,75.05
2023-04-18T02:21:14.722Z,75.09
2023-04-18T02:23:41.563Z,75.25
2023-04-18T02:26:08.693Z,75.12
2023-04-18T02:28:39.028Z,75.44
2023-04-18T02:31:07.354Z,75.38
2023-04-18T02:33:34.639Z,75.56
2023-04-18T02:36:01.911Z,75.57
2023-04-18T02:38:28.908Z,75.57
2023-04-18T02:40:56.123Z,75.63
2023-04-18T02:43:23.117Z,75.66
2023-04-18T02:45:50.671Z,75.62
2023-04-18T02:48:17.586Z,75.68
2023-04-18T02:50:45.686Z,75.56
2023-04-18T02:53:13.279Z,75.48
2023-04-18T02:55:51.317Z,75.92
2023-04-18T02:58:19.364Z,75.76
2023-04-18T03:01:05.707Z,75.90
2023-04-18T03:03:51.315Z,75.90
2023-04-18T03:06:33.935Z,76.17
2023-04-18T03:09:03.647Z,76.24
2023-04-18T03:11:34.234Z,76.06
2023-04-18T03:14:01.144Z,75.87
2023-04-18T03:16:35.366Z,75.76
2023-04-18T03:19:03.788Z,75.64
2023-04-18T03:21:31.579Z,75.57
2023-04-18T03:23:58.729Z,75.63
2023-04-18T03:26:26.455Z,75.70
2023-04-18T03:28:54.641Z,75.60
2023-04-18T03:31:21.691Z,75.54
2023-04-18T03:33:49.173Z,75.52
2023-04-18T03:36:18.251Z,75.69
2023-04-18T03:38:45.636Z,75.62
2023-04-18T03:41:12.615Z,75.63
2023-04-18T03:43:39.527Z,75.55
2023-04-18T03:46:06.397Z,75.67
2023-04-18T03:48:37.323Z,75.52
2023-04-18T03:51:08.904Z,75.44
2023-04-18T03:53:36.790Z,75.55
2023-04-18T03:56:03.879Z,75.38
2023-04-18T03:58:51.614Z,75.25
2023-04-18T04:01:20.463Z,75.29
2023-04-18T04:03:47.659Z,75.32
2023-04-18T04:06:15.226Z,75.31
2023-04-18T04:08:42.459Z,75.44
2023-04-18T04:11:10.303Z,75.56
2023-04-18T04:13:39.100Z,75.53
2023-04-18T04:16:07.230Z,75.59
2023-04-18T04:18:34.200Z,75.54
2023-04-18T04:21:03.446Z,75.66
2023-04-18T04:23:43.356Z,75.81
2023-04-18T04:26:16.725Z,75.82
2023-04-18T04:28:51.693Z,75.77
2023-04-18T04:31:22.801Z,75.89
2023-04-18T04:33:50.874Z,75.85
2023-04-18T04:36:23.186Z,76.01
2023-04-18T04:38:52.526Z,75.92
2023-04-18T04:41:27.792Z,75.50
2023-04-18T04:43:54.789Z,75.40
2023-04-18T04:46:30.356Z,75.26
2023-04-18T04:48:58.392Z,75.20
2023-04-18T04:51:28.023Z,75.09
2023-04-18T04:53:55.669Z,75.05
2023-04-18T04:56:23.541Z,75.06
2023-04-18T04:58:50.657Z,74.96
2023-04-18T05:01:29.149Z,74.83
2023-04-18T05:03:56.236Z,74.87
2023-04-18T05:06:24.009Z,74.54
2023-04-18T05:08:51.260Z,74.32
2023-04-18T05:11:18.492Z,74.18
2023-04-18T05:13:45.337Z,73.88
2023-04-18T05:16:12.382Z,73.76
2023-04-18T05:18:41.090Z,73.77
2023-04-18T05:21:08.106Z,73.88
2023-04-18T05:23:37.704Z,73.87
2023-04-18T05:26:05.829Z,73.83
2023-04-18T05:28:33.118Z,73.57
2023-04-18T05:31:02.780Z,73.57
2023-04-18T05:33:30.776Z,73.55
2023-04-18T05:35:58.449Z,73.39
2023-04-18T05:38:25.690Z,73.40
2023-04-18T05:40:55.449Z,73.31
2023-04-18T05:43:23.265Z,73.37
2023-04-18T05:45:52.387Z,73.29
2023-04-18T05:48:20.104Z,73.22
2023-04-18T05:50:47.417Z,73.25
2023-04-18T05:53:14.420Z,73.18
2023-04-18T05:55:41.582Z,73.22
2023-04-18T05:58:08.429Z,73.14
2023-04-18T06:00:35.835Z,73.07
2023-04-18T06:03:02.929Z,72.71
2023-04-18T06:05:30.409Z,72.32
2023-04-18T06:07:57.808Z,71.80
2023-04-18T06:10:24.827Z,71.39
2023-04-18T06:12:51.625Z,71.15
2023-04-18T06:15:18.556Z,70.94
2023-04-18T06:17:45.464Z,70.81
2023-04-18T06:20:12.642Z,70.59
2023-04-18T06:22:39.562Z,70.35
2023-04-18T06:25:08.900Z,70.29
2023-04-18T06:27:37.224Z,69.82
2023-04-18T06:30:05.843Z,69.48
2023-04-18T06:32:32.716Z,69.47
2023-04-18T06:34:59.632Z,69.78
2023-04-18T06:37:26.573Z,69.20
2023-04-18T06:39:53.567Z,69.36
2023-04-18T06:42:22.565Z,69.22
2023-04-18T06:44:50.242Z,68.69
2023-04-18T06:47:17.386Z,67.75
2023-04-18T06:49:44.260Z,67.56
2023-04-18T06:52:11.187Z,67.03
